sensor_id;sensor_type;location;lat;lon;timestamp;P1;durP1;ratioP1;P2;durP2;ratioP2
8594;SDS011;4335;48.860;9.198;2024-02-28T00:00:13;18.67;;;13.50;;
8594;SDS011;4335;48.860;9.198;2024-02-28T00:02:41;17.07;;;13.70;;
8594;SDS011;4335;48.860;9.198;2024-02-28T00:05:11;19.80;;;14.63;;
8594;SDS011;4335;48.860;9.198;2024-02-28T00:07:41;18.00;;;13.83;;
8594;SDS011;4335;48.860;9.198;2024-02-28T00:10:22;16.87;;;13.27;;
8594;SDS011;4335;48.860;9.198;2024-02-28T00:12:50;17.17;;;14.03;;
8594;SDS011;4335;48.860;9.198;2024-02-28T00:15:20;19.37;;;13.27;;
8594;SDS011;4335;48.860;9.198;2024-02-28T00:17:51;22.80;;;14.77;;
8594;SDS011;4335;48.860;9.198;2024-02-28T00:20:18;19.10;;;14.40;;
8594;SDS011;4335;48.860;9.198;2024-02-28T00:22:46;19.00;;;14.20;;
8594;SDS011;4335;48.860;9.198;2024-02-28T00:25:13;17.47;;;14.03;;
8594;SDS011;4335;48.860;9.198;2024-02-28T00:27:42;21.50;;;14.90;;
8594;SDS011;4335;48.860;9.198;2024-02-28T00:30:16;19.50;;;15.07;;
8594;SDS011;4335;48.860;9.198;2024-02-28T00:32:46;17.90;;;13.70;;
8594;SDS011;4335;48.860;9.198;2024-02-28T00:35:14;18.53;;;14.10;;
8594;SDS011;4335;48.860;9.198;2024-02-28T00:37:41;19.97;;;14.23;;
8594;SDS011;4335;48.860;9.198;2024-02-28T00:40:12;20.57;;;14.90;;
8594;SDS011;4335;48.860;9.198;2024-02-28T00:42:39;19.27;;;13.93;;
8594;SDS011;4335;48.860;9.198;2024-02-28T00:45:11;24.37;;;15.40;;
8594;SDS011;4335;48.860;9.198;2024-02-28T00:47:38;22.20;;;14.80;;
8594;SDS011;4335;48.860;9.198;2024-02-28T00:50:12;20.13;;;14.67;;
8594;SDS011;4335;48.860;9.198;2024-02-28T00:52:39;21.87;;;15.73;;
8594;SDS011;4335;48.860;9.198;2024-02-28T00:55:13;21.37;;;15.33;;
8594;SDS011;4335;48.860;9.198;2024-02-28T00:57:41;17.27;;;14.37;;
8594;SDS011;4335;48.860;9.198;2024-02-28T01:00:16;19.37;;;14.23;;
8594;SDS011;4335;48.860;9.198;2024-02-28T01:02:43;22.73;;;15.90;;
8594;SDS011;4335;48.860;9.198;2024-02-28T01:05:17;19.30;;;14.93;;
8594;SDS011;4335;48.860;9.198;2024-02-28T01:07:44;20.73;;;15.00;;
8594;SDS011;4335;48.860;9.198;2024-02-28T01:10:20;20.63;;;14.57;;
8594;SDS011;4335;48.860;9.198;2024-02-28T01:12:52;20.20;;;14.97;;
8594;SDS011;4335;48.860;9.198;2024-02-28T01:15:22;20.43;;;15.03;;
8594;SDS011;4335;48.860;9.198;2024-02-28T01:17:50;22.20;;;15.77;;
8594;SDS011;4335;48.860;9.198;2024-02-28T01:20:23;20.67;;;15.03;;
8594;SDS011;4335;48.860;9.198;2024-02-28T01:22:51;20.20;;;14.80;;
8594;SDS011;4335;48.860;9.198;2024-02-28T01:25:18;22.00;;;14.97;;
8594;SDS011;4335;48.860;9.198;2024-02-28T01:27:46;21.57;;;15.23;;
8594;SDS011;4335;48.860;9.198;2024-02-28T01:30:18;21.83;;;16.23;;
8594;SDS011;4335;48.860;9.198;2024-02-28T01:32:48;23.97;;;15.97;;
8594;SDS011;4335;48.860;9.198;2024-02-28T01:35:15;20.23;;;15.57;;
8594;SDS011;4335;48.860;9.198;2024-02-28T01:37:46;21.30;;;16.27;;
8594;SDS011;4335;48.860;9.198;2024-02-28T01:40:16;27.33;;;16.57;;
8594;SDS011;4335;48.860;9.198;2024-02-28T01:42:44;26.10;;;16.07;;
8594;SDS011;4335;48.860;9.198;2024-02-28T01:45:13;22.73;;;16.60;;
8594;SDS011;4335;48.860;9.198;2024-02-28T01:47:42;22.27;;;15.90;;
8594;SDS011;4335;48.860;9.198;2024-02-28T01:50:15;23.13;;;15.87;;
8594;SDS011;4335;48.860;9.198;2024-02-28T01:52:43;20.87;;;15.73;;
8594;SDS011;4335;48.860;9.198;2024-02-28T01:55:13;24.53;;;16.03;;
8594;SDS011;4335;48.860;9.198;2024-02-28T01:57:41;20.23;;;16.50;;
8594;SDS011;4335;48.860;9.198;2024-02-28T02:00:11;20.83;;;14.83;;
8594;SDS011;4335;48.860;9.198;2024-02-28T02:02:42;20.17;;;14.83;;
8594;SDS011;4335;48.860;9.198;2024-02-28T02:05:10;22.07;;;15.63;;
8594;SDS011;4335;48.860;9.198;2024-02-28T02:07:39;21.10;;;15.27;;
8594;SDS011;4335;48.860;9.198;2024-02-28T02:10:07;24.70;;;16.03;;
8594;SDS011;4335;48.860;9.198;2024-02-28T02:12:37;21.23;;;15.23;;
8594;SDS011;4335;48.860;9.198;2024-02-28T02:15:05;19.47;;;15.10;;
8594;SDS011;4335;48.860;9.198;2024-02-28T02:17:32;21.87;;;16.20;;
8594;SDS011;4335;48.860;9.198;2024-02-28T02:20:01;24.13;;;16.07;;
8594;SDS011;4335;48.860;9.198;2024-02-28T02:22:38;23.13;;;15.30;;
8594;SDS011;4335;48.860;9.198;2024-02-28T02:25:08;24.73;;;15.13;;
8594;SDS011;4335;48.860;9.198;2024-02-28T02:27:36;21.77;;;15.70;;
8594;SDS011;4335;48.860;9.198;2024-02-28T02:30:03;21.40;;;15.60;;
8594;SDS011;4335;48.860;9.198;2024-02-28T02:32:35;21.83;;;15.40;;
8594;SDS011;4335;48.860;9.198;2024-02-28T02:35:02;19.13;;;14.90;;
8594;SDS011;4335;48.860;9.198;2024-02-28T02:37:33;18.93;;;14.60;;
8594;SDS011;4335;48.860;9.198;2024-02-28T02:40:06;19.17;;;14.63;;
8594;SDS011;4335;48.860;9.198;2024-02-28T02:42:35;19.77;;;13.93;;
8594;SDS011;4335;48.860;9.198;2024-02-28T02:45:06;21.03;;;14.60;;
8594;SDS011;4335;48.860;9.198;2024-02-28T02:47:34;21.27;;;13.97;;
8594;SDS011;4335;48.860;9.198;2024-02-28T02:50:07;16.93;;;14.17;;
8594;SDS011;4335;48.860;9.198;2024-02-28T02:52:37;18.03;;;13.47;;
8594;SDS011;4335;48.860;9.198;2024-02-28T02:55:06;19.33;;;14.93;;
8594;SDS011;4335;48.860;9.198;2024-02-28T02:57:37;18.80;;;13.80;;
8594;SDS011;4335;48.860;9.198;2024-02-28T03:00:08;21.37;;;16.03;;
8594;SDS011;4335;48.860;9.198;2024-02-28T03:02:36;19.30;;;14.23;;
8594;SDS011;4335;48.860;9.198;2024-02-28T03:05:08;20.23;;;14.47;;
8594;SDS011;4335;48.860;9.198;2024-02-28T03:07:35;20.67;;;14.33;;
8594;SDS011;4335;48.860;9.198;2024-02-28T03:10:07;18.33;;;14.10;;
8594;SDS011;4335;48.860;9.198;2024-02-28T03:12:35;21.43;;;14.57;;
8594;SDS011;4335;48.860;9.198;2024-02-28T03:15:03;18.43;;;14.23;;
8594;SDS011;4335;48.860;9.198;2024-02-28T03:17:32;19.20;;;13.37;;
8594;SDS011;4335;48.860;9.198;2024-02-28T03:20:03;20.67;;;14.80;;
8594;SDS011;4335;48.860;9.198;2024-02-28T03:22:32;21.43;;;15.10;;
8594;SDS011;4335;48.860;9.198;2024-02-28T03:25:01;19.23;;;13.50;;
8594;SDS011;4335;48.860;9.198;2024-02-28T03:27:33;19.13;;;13.37;;
8594;SDS011;4335;48.860;9.198;2024-02-28T03:30:01;18.53;;;14.77;;
8594;SDS011;4335;48.860;9.198;2024-02-28T03:32:28;20.43;;;13.97;;
8594;SDS011;4335;48.860;9.198;2024-02-28T03:34:56;19.43;;;13.60;;
8594;SDS011;4335;48.860;9.198;2024-02-28T03:37:29;22.30;;;13.83;;
8594;SDS011;4335;48.860;9.198;2024-02-28T03:39:59;18.00;;;13.93;;
8594;SDS011;4335;48.860;9.198;2024-02-28T03:42:27;19.83;;;15.27;;
8594;SDS011;4335;48.860;9.198;2024-02-28T03:45:00;20.53;;;14.47;;
8594;SDS011;4335;48.860;9.198;2024-02-28T03:47:42;18.60;;;14.00;;
8594;SDS011;4335;48.860;9.198;2024-02-28T03:50:10;19.47;;;14.43;;
8594;SDS011;4335;48.860;9.198;2024-02-28T03:52:40;21.03;;;14.23;;
8594;SDS011;4335;48.860;9.198;2024-02-28T03:55:08;20.10;;;14.60;;
8594;SDS011;4335;48.860;9.198;2024-02-28T03:57:37;21.30;;;14.40;;
8594;SDS011;4335;48.860;9.198;2024-02-28T04:00:07;22.83;;;15.27;;
8594;SDS011;4335;48.860;9.198;2024-02-28T04:02:35;17.90;;;13.87;;
8594;SDS011;4335;48.860;9.198;2024-02-28T04:05:03;18.77;;;12.67;;
8594;SDS011;4335;48.860;9.198;2024-02-28T04:07:33;18.90;;;13.87;;
8594;SDS011;4335;48.860;9.198;2024-02-28T04:10:01;19.37;;;14.67;;
8594;SDS011;4335;48.860;9.198;2024-02-28T04:12:30;15.87;;;13.47;;
8594;SDS011;4335;48.860;9.198;2024-02-28T04:15:01;19.20;;;13.87;;
8594;SDS011;4335;48.860;9.198;2024-02-28T04:17:33;18.60;;;14.27;;
8594;SDS011;4335;48.860;9.198;2024-02-28T04:20:00;17.83;;;13.63;;
8594;SDS011;4335;48.860;9.198;2024-02-28T04:22:35;19.17;;;14.03;;
8594;SDS011;4335;48.860;9.198;2024-02-28T04:25:05;17.07;;;13.63;;
8594;SDS011;4335;48.860;9.198;2024-02-28T04:27:34;18.80;;;13.40;;
8594;SDS011;4335;48.860;9.198;2024-02-28T04:30:02;18.03;;;13.73;;
8594;SDS011;4335;48.860;9.198;2024-02-28T04:32:37;16.10;;;12.73;;
8594;SDS011;4335;48.860;9.198;2024-02-28T04:35:07;19.77;;;13.40;;
8594;SDS011;4335;48.860;9.198;2024-02-28T04:37:37;18.77;;;14.10;;
8594;SDS011;4335;48.860;9.198;2024-02-28T04:40:07;18.33;;;12.73;;
8594;SDS011;4335;48.860;9.198;2024-02-28T04:42:41;16.57;;;12.57;;
8594;SDS011;4335;48.860;9.198;2024-02-28T04:45:12;18.47;;;13.70;;
8594;SDS011;4335;48.860;9.198;2024-02-28T04:47:46;19.40;;;13.90;;
8594;SDS011;4335;48.860;9.198;2024-02-28T04:50:22;16.63;;;13.47;;
8594;SDS011;4335;48.860;9.198;2024-02-28T04:52:53;18.77;;;13.90;;
8594;SDS011;4335;48.860;9.198;2024-02-28T04:55:23;15.90;;;12.47;;
8594;SDS011;4335;48.860;9.198;2024-02-28T04:57:54;15.33;;;11.97;;
8594;SDS011;4335;48.860;9.198;2024-02-28T05:00:24;17.63;;;12.87;;
8594;SDS011;4335;48.860;9.198;2024-02-28T05:02:53;17.10;;;13.83;;
8594;SDS011;4335;48.860;9.198;2024-02-28T05:05:21;16.73;;;13.13;;
8594;SDS011;4335;48.860;9.198;2024-02-28T05:07:48;17.60;;;13.03;;
8594;SDS011;4335;48.860;9.198;2024-02-28T05:10:16;19.63;;;13.77;;
8594;SDS011;4335;48.860;9.198;2024-02-28T05:12:43;17.77;;;13.50;;
8594;SDS011;4335;48.860;9.198;2024-02-28T05:15:11;16.73;;;12.13;;
8594;SDS011;4335;48.860;9.198;2024-02-28T05:17:39;17.97;;;13.80;;
8594;SDS011;4335;48.860;9.198;2024-02-28T05:20:11;19.47;;;13.30;;
8594;SDS011;4335;48.860;9.198;2024-02-28T05:22:40;19.27;;;13.77;;
8594;SDS011;4335;48.860;9.198;2024-02-28T05:25:07;17.93;;;12.40;;
8594;SDS011;4335;48.860;9.198;2024-02-28T05:27:35;17.57;;;13.20;;
8594;SDS011;4335;48.860;9.198;2024-02-28T05:30:03;14.97;;;12.43;;
8594;SDS011;4335;48.860;9.198;2024-02-28T05:32:39;18.27;;;13.57;;
8594;SDS011;4335;48.860;9.198;2024-02-28T05:35:07;16.30;;;12.57;;
8594;SDS011;4335;48.860;9.198;2024-02-28T05:37:38;20.03;;;13.10;;
8594;SDS011;4335;48.860;9.198;2024-02-28T05:40:06;17.73;;;13.80;;
8594;SDS011;4335;48.860;9.198;2024-02-28T05:42:41;21.70;;;14.30;;
8594;SDS011;4335;48.860;9.198;2024-02-28T05:45:08;17.00;;;12.60;;
8594;SDS011;4335;48.860;9.198;2024-02-28T05:47:43;18.53;;;12.53;;
8594;SDS011;4335;48.860;9.198;2024-02-28T05:50:14;19.53;;;14.07;;
8594;SDS011;4335;48.860;9.198;2024-02-28T05:52:46;17.50;;;13.23;;
8594;SDS011;4335;48.860;9.198;2024-02-28T05:55:13;17.23;;;14.07;;
8594;SDS011;4335;48.860;9.198;2024-02-28T05:57:41;18.17;;;13.07;;
8594;SDS011;4335;48.860;9.198;2024-02-28T06:00:16;16.40;;;13.53;;
8594;SDS011;4335;48.860;9.198;2024-02-28T06:02:44;17.00;;;13.10;;
8594;SDS011;4335;48.860;9.198;2024-02-28T06:05:11;18.90;;;13.97;;
8594;SDS011;4335;48.860;9.198;2024-02-28T06:07:39;16.07;;;13.80;;
8594;SDS011;4335;48.860;9.198;2024-02-28T06:10:13;16.87;;;13.23;;
8594;SDS011;4335;48.860;9.198;2024-02-28T06:12:50;18.90;;;14.13;;
8594;SDS011;4335;48.860;9.198;2024-02-28T06:15:18;19.63;;;13.87;;
8594;SDS011;4335;48.860;9.198;2024-02-28T06:17:47;18.13;;;14.40;;
8594;SDS011;4335;48.860;9.198;2024-02-28T06:20:15;20.27;;;14.03;;
8594;SDS011;4335;48.860;9.198;2024-02-28T06:22:45;18.20;;;14.63;;
8594;SDS011;4335;48.860;9.198;2024-02-28T06:25:14;18.43;;;13.87;;
8594;SDS011;4335;48.860;9.198;2024-02-28T06:27:48;21.43;;;14.03;;
8594;SDS011;4335;48.860;9.198;2024-02-28T06:30:18;20.43;;;15.27;;
8594;SDS011;4335;48.860;9.198;2024-02-28T06:32:49;17.70;;;13.80;;
8594;SDS011;4335;48.860;9.198;2024-02-28T06:35:17;18.93;;;14.23;;
8594;SDS011;4335;48.860;9.198;2024-02-28T06:37:44;19.93;;;15.17;;
8594;SDS011;4335;48.860;9.198;2024-02-28T06:40:16;17.43;;;14.73;;
8594;SDS011;4335;48.860;9.198;2024-02-28T06:42:44;19.73;;;14.00;;
8594;SDS011;4335;48.860;9.198;2024-02-28T06:45:11;23.63;;;14.03;;
8594;SDS011;4335;48.860;9.198;2024-02-28T06:47:47;23.30;;;15.97;;
8594;SDS011;4335;48.860;9.198;2024-02-28T06:50:14;19.03;;;14.70;;
8594;SDS011;4335;48.860;9.198;2024-02-28T06:52:48;26.50;;;19.13;;
8594;SDS011;4335;48.860;9.198;2024-02-28T06:55:20;20.23;;;15.13;;
8594;SDS011;4335;48.860;9.198;2024-02-28T06:57:48;18.73;;;14.37;;
8594;SDS011;4335;48.860;9.198;2024-02-28T07:00:15;18.90;;;14.33;;
8594;SDS011;4335;48.860;9.198;2024-02-28T07:02:50;17.97;;;13.67;;
8594;SDS011;4335;48.860;9.198;2024-02-28T07:05:23;16.07;;;13.67;;
8594;SDS011;4335;48.860;9.198;2024-02-28T07:07:51;23.03;;;15.10;;
8594;SDS011;4335;48.860;9.198;2024-02-28T07:10:22;18.93;;;13.63;;
8594;SDS011;4335;48.860;9.198;2024-02-28T07:12:50;19.37;;;14.53;;
8594;SDS011;4335;48.860;9.198;2024-02-28T07:15:17;17.30;;;13.83;;
8594;SDS011;4335;48.860;9.198;2024-02-28T07:17:47;16.63;;;13.70;;
8594;SDS011;4335;48.860;9.198;2024-02-28T07:20:17;18.90;;;13.50;;
8594;SDS011;4335;48.860;9.198;2024-02-28T07:22:44;17.70;;;14.13;;
8594;SDS011;4335;48.860;9.198;2024-02-28T07:25:15;19.63;;;14.13;;
8594;SDS011;4335;48.860;9.198;2024-02-28T07:27:47;22.33;;;14.80;;
8594;SDS011;4335;48.860;9.198;2024-02-28T07:30:21;21.00;;;15.57;;
8594;SDS011;4335;48.860;9.198;2024-02-28T07:32:48;22.77;;;15.90;;
8594;SDS011;4335;48.860;9.198;2024-02-28T07:35:16;19.80;;;15.13;;
8594;SDS011;4335;48.860;9.198;2024-02-28T07:37:44;20.47;;;15.10;;
8594;SDS011;4335;48.860;9.198;2024-02-28T07:40:11;18.43;;;14.80;;
8594;SDS011;4335;48.860;9.198;2024-02-28T07:42:45;19.67;;;15.10;;
8594;SDS011;4335;48.860;9.198;2024-02-28T07:45:13;23.47;;;15.27;;
8594;SDS011;4335;48.860;9.198;2024-02-28T07:47:44;19.57;;;14.30;;
8594;SDS011;4335;48.860;9.198;2024-02-28T07:50:11;22.83;;;15.80;;
8594;SDS011;4335;48.860;9.198;2024-02-28T07:52:39;21.50;;;15.03;;
8594;SDS011;4335;48.860;9.198;2024-02-28T07:55:06;20.57;;;15.03;;
8594;SDS011;4335;48.860;9.198;2024-02-28T07:57:40;19.53;;;15.10;;
8594;SDS011;4335;48.860;9.198;2024-02-28T08:00:15;19.27;;;14.03;;
8594;SDS011;4335;48.860;9.198;2024-02-28T08:02:50;22.53;;;15.40;;
8594;SDS011;4335;48.860;9.198;2024-02-28T08:05:20;22.67;;;15.27;;
8594;SDS011;4335;48.860;9.198;2024-02-28T08:07:48;20.43;;;15.00;;
8594;SDS011;4335;48.860;9.198;2024-02-28T08:10:21;23.60;;;16.73;;
8594;SDS011;4335;48.860;9.198;2024-02-28T08:12:48;27.33;;;15.97;;
8594;SDS011;4335;48.860;9.198;2024-02-28T08:15:18;20.83;;;14.57;;
8594;SDS011;4335;48.860;9.198;2024-02-28T08:17:45;21.00;;;15.37;;
8594;SDS011;4335;48.860;9.198;2024-02-28T08:20:14;23.30;;;16.07;;
8594;SDS011;4335;48.860;9.198;2024-02-28T08:22:42;21.73;;;15.03;;
8594;SDS011;4335;48.860;9.198;2024-02-28T08:25:09;20.47;;;15.23;;
8594;SDS011;4335;48.860;9.198;2024-02-28T08:27:40;22.13;;;16.23;;
8594;SDS011;4335;48.860;9.198;2024-02-28T08:30:15;25.77;;;16.47;;
8594;SDS011;4335;48.860;9.198;2024-02-28T08:32:44;19.43;;;14.73;;
8594;SDS011;4335;48.860;9.198;2024-02-28T08:35:14;21.03;;;14.87;;
8594;SDS011;4335;48.860;9.198;2024-02-28T08:37:44;20.83;;;14.20;;
8594;SDS011;4335;48.860;9.198;2024-02-28T08:40:17;20.77;;;15.57;;
8594;SDS011;4335;48.860;9.198;2024-02-28T08:42:45;22.40;;;15.20;;
8594;SDS011;4335;48.860;9.198;2024-02-28T08:45:18;23.93;;;15.67;;
8594;SDS011;4335;48.860;9.198;2024-02-28T08:47:50;23.10;;;14.73;;
8594;SDS011;4335;48.860;9.198;2024-02-28T08:50:18;22.07;;;14.57;;
8594;SDS011;4335;48.860;9.198;2024-02-28T08:52:48;20.93;;;15.23;;
8594;SDS011;4335;48.860;9.198;2024-02-28T08:55:15;22.83;;;14.90;;
8594;SDS011;4335;48.860;9.198;2024-02-28T08:57:45;22.70;;;15.90;;
8594;SDS011;4335;48.860;9.198;2024-02-28T09:00:19;20.83;;;14.73;;
8594;SDS011;4335;48.860;9.198;2024-02-28T09:02:51;22.50;;;15.17;;
8594;SDS011;4335;48.860;9.198;2024-02-28T09:05:21;20.77;;;14.47;;
8594;SDS011;4335;48.860;9.198;2024-02-28T09:07:49;19.60;;;15.00;;
8594;SDS011;4335;48.860;9.198;2024-02-28T09:10:20;19.70;;;14.17;;
8594;SDS011;4335;48.860;9.198;2024-02-28T09:12:52;20.63;;;13.57;;
8594;SDS011;4335;48.860;9.198;2024-02-28T09:15:22;23.80;;;14.47;;
8594;SDS011;4335;48.860;9.198;2024-02-28T09:17:51;22.10;;;14.90;;
8594;SDS011;4335;48.860;9.198;2024-02-28T09:20:26;19.27;;;14.03;;
8594;SDS011;4335;48.860;9.198;2024-02-28T09:22:53;18.80;;;14.33;;
8594;SDS011;4335;48.860;9.198;2024-02-28T09:25:29;21.43;;;14.77;;
8594;SDS011;4335;48.860;9.198;2024-02-28T09:27:57;21.33;;;14.43;;
8594;SDS011;4335;48.860;9.198;2024-02-28T09:30:31;19.73;;;13.53;;
8594;SDS011;4335;48.860;9.198;2024-02-28T09:33:01;21.67;;;14.83;;
8594;SDS011;4335;48.860;9.198;2024-02-28T09:35:31;21.17;;;14.87;;
8594;SDS011;4335;48.860;9.198;2024-02-28T09:38:01;22.57;;;14.90;;
8594;SDS011;4335;48.860;9.198;2024-02-28T09:40:30;23.90;;;14.07;;
8594;SDS011;4335;48.860;9.198;2024-02-28T09:43:06;17.13;;;12.73;;
8594;SDS011;4335;48.860;9.198;2024-02-28T09:45:51;20.00;;;14.00;;
8594;SDS011;4335;48.860;9.198;2024-02-28T09:48:23;17.30;;;13.33;;
8594;SDS011;4335;48.860;9.198;2024-02-28T09:50:54;18.40;;;13.23;;
8594;SDS011;4335;48.860;9.198;2024-02-28T09:53:30;19.30;;;13.30;;
8594;SDS011;4335;48.860;9.198;2024-02-28T09:56:01;19.70;;;13.77;;
8594;SDS011;4335;48.860;9.198;2024-02-28T09:58:29;18.50;;;13.33;;
8594;SDS011;4335;48.860;9.198;2024-02-28T10:00:58;19.70;;;14.63;;
8594;SDS011;4335;48.860;9.198;2024-02-28T10:03:30;18.43;;;13.90;;
8594;SDS011;4335;48.860;9.198;2024-02-28T10:06:02;20.97;;;14.20;;
8594;SDS011;4335;48.860;9.198;2024-02-28T10:08:38;19.63;;;13.60;;
8594;SDS011;4335;48.860;9.198;2024-02-28T10:11:09;21.20;;;14.47;;
8594;SDS011;4335;48.860;9.198;2024-02-28T10:13:36;20.40;;;14.80;;
8594;SDS011;4335;48.860;9.198;2024-02-28T10:16:06;17.53;;;13.30;;
8594;SDS011;4335;48.860;9.198;2024-02-28T10:18:35;17.00;;;13.07;;
8594;SDS011;4335;48.860;9.198;2024-02-28T10:21:03;19.13;;;14.67;;
8594;SDS011;4335;48.860;9.198;2024-02-28T10:23:34;20.83;;;14.53;;
8594;SDS011;4335;48.860;9.198;2024-02-28T10:26:03;21.63;;;14.53;;
8594;SDS011;4335;48.860;9.198;2024-02-28T10:28:36;16.70;;;13.43;;
8594;SDS011;4335;48.860;9.198;2024-02-28T10:31:05;22.30;;;13.53;;
8594;SDS011;4335;48.860;9.198;2024-02-28T10:33:35;20.63;;;13.43;;
8594;SDS011;4335;48.860;9.198;2024-02-28T10:36:03;22.30;;;13.50;;
8594;SDS011;4335;48.860;9.198;2024-02-28T10:38:34;21.63;;;14.70;;
8594;SDS011;4335;48.860;9.198;2024-02-28T10:41:03;18.33;;;13.20;;
8594;SDS011;4335;48.860;9.198;2024-02-28T10:43:30;17.57;;;13.40;;
8594;SDS011;4335;48.860;9.198;2024-02-28T10:45:59;19.63;;;13.60;;
8594;SDS011;4335;48.860;9.198;2024-02-28T10:48:31;20.03;;;13.33;;
8594;SDS011;4335;48.860;9.198;2024-02-28T10:50:59;17.27;;;13.03;;
8594;SDS011;4335;48.860;9.198;2024-02-28T10:53:30;18.50;;;13.17;;
8594;SDS011;4335;48.860;9.198;2024-02-28T10:56:03;18.63;;;14.50;;
8594;SDS011;4335;48.860;9.198;2024-02-28T10:58:33;18.17;;;13.33;;
8594;SDS011;4335;48.860;9.198;2024-02-28T11:01:10;23.43;;;14.87;;
8594;SDS011;4335;48.860;9.198;2024-02-28T11:03:41;23.47;;;14.90;;
8594;SDS011;4335;48.860;9.198;2024-02-28T11:06:20;18.60;;;14.13;;
8594;SDS011;4335;48.860;9.198;2024-02-28T11:08:48;19.60;;;14.57;;
8594;SDS011;4335;48.860;9.198;2024-02-28T11:11:19;22.03;;;14.70;;
8594;SDS011;4335;48.860;9.198;2024-02-28T11:13:56;27.60;;;17.07;;
8594;SDS011;4335;48.860;9.198;2024-02-28T11:16:26;24.77;;;15.60;;
8594;SDS011;4335;48.860;9.198;2024-02-28T11:19:03;23.30;;;16.30;;
8594;SDS011;4335;48.860;9.198;2024-02-28T11:21:34;21.83;;;15.10;;
8594;SDS011;4335;48.860;9.198;2024-02-28T11:26:49;21.37;;;15.03;;
8594;SDS011;4335;48.860;9.198;2024-02-28T11:29:21;22.97;;;16.07;;
8594;SDS011;4335;48.860;9.198;2024-02-28T11:31:50;22.70;;;15.13;;
8594;SDS011;4335;48.860;9.198;2024-02-28T11:34:18;23.80;;;16.07;;
8594;SDS011;4335;48.860;9.198;2024-02-28T11:36:50;22.33;;;15.77;;
8594;SDS011;4335;48.860;9.198;2024-02-28T11:39:18;21.23;;;14.97;;
8594;SDS011;4335;48.860;9.198;2024-02-28T11:41:49;19.53;;;14.53;;
8594;SDS011;4335;48.860;9.198;2024-02-28T11:44:19;24.13;;;16.63;;
8594;SDS011;4335;48.860;9.198;2024-02-28T11:46:50;23.17;;;14.77;;
8594;SDS011;4335;48.860;9.198;2024-02-28T11:49:17;22.03;;;15.27;;
8594;SDS011;4335;48.860;9.198;2024-02-28T11:51:45;20.27;;;13.60;;
8594;SDS011;4335;48.860;9.198;2024-02-28T11:54:17;20.40;;;14.17;;
8594;SDS011;4335;48.860;9.198;2024-02-28T11:56:47;24.83;;;15.67;;
8594;SDS011;4335;48.860;9.198;2024-02-28T11:59:15;21.00;;;14.67;;
8594;SDS011;4335;48.860;9.198;2024-02-28T12:01:43;23.47;;;15.13;;
8594;SDS011;4335;48.860;9.198;2024-02-28T12:04:14;19.37;;;14.23;;
8594;SDS011;4335;48.860;9.198;2024-02-28T12:06:46;19.97;;;15.07;;
8594;SDS011;4335;48.860;9.198;2024-02-28T12:09:13;23.03;;;15.17;;
8594;SDS011;4335;48.860;9.198;2024-02-28T12:11:42;22.90;;;15.73;;
8594;SDS011;4335;48.860;9.198;2024-02-28T12:14:11;24.07;;;16.07;;
8594;SDS011;4335;48.860;9.198;2024-02-28T12:16:39;23.33;;;14.83;;
8594;SDS011;4335;48.860;9.198;2024-02-28T12:19:10;20.77;;;15.23;;
8594;SDS011;4335;48.860;9.198;2024-02-28T12:21:40;21.33;;;14.80;;
8594;SDS011;4335;48.860;9.198;2024-02-28T12:24:08;20.30;;;14.30;;
8594;SDS011;4335;48.860;9.198;2024-02-28T12:26:37;21.77;;;15.57;;
8594;SDS011;4335;48.860;9.198;2024-02-28T12:29:08;22.50;;;15.10;;
8594;SDS011;4335;48.860;9.198;2024-02-28T12:31:45;20.03;;;14.40;;
8594;SDS011;4335;48.860;9.198;2024-02-28T12:34:12;21.63;;;14.87;;
8594;SDS011;4335;48.860;9.198;2024-02-28T12:36:44;19.90;;;14.40;;
8594;SDS011;4335;48.860;9.198;2024-02-28T12:39:14;25.00;;;15.03;;
8594;SDS011;4335;48.860;9.198;2024-02-28T12:41:42;37.23;;;21.83;;
8594;SDS011;4335;48.860;9.198;2024-02-28T12:44:11;21.33;;;14.20;;
8594;SDS011;4335;48.860;9.198;2024-02-28T12:46:38;20.67;;;14.17;;
8594;SDS011;4335;48.860;9.198;2024-02-28T12:49:05;22.50;;;14.60;;
8594;SDS011;4335;48.860;9.198;2024-02-28T12:51:38;19.77;;;14.40;;
8594;SDS011;4335;48.860;9.198;2024-02-28T12:54:16;20.40;;;14.30;;
8594;SDS011;4335;48.860;9.198;2024-02-28T12:56:44;18.07;;;13.27;;
8594;SDS011;4335;48.860;9.198;2024-02-28T12:59:16;21.30;;;14.63;;
8594;SDS011;4335;48.860;9.198;2024-02-28T13:01:44;20.37;;;14.27;;
8594;SDS011;4335;48.860;9.198;2024-02-28T13:04:13;21.37;;;13.80;;
8594;SDS011;4335;48.860;9.198;2024-02-28T13:06:43;20.53;;;14.00;;
8594;SDS011;4335;48.860;9.198;2024-02-28T13:09:17;21.20;;;14.57;;
8594;SDS011;4335;48.860;9.198;2024-02-28T13:11:47;19.40;;;13.17;;
8594;SDS011;4335;48.860;9.198;2024-02-28T13:14:15;21.20;;;14.70;;
8594;SDS011;4335;48.860;9.198;2024-02-28T13:16:52;19.97;;;13.93;;
8594;SDS011;4335;48.860;9.198;2024-02-28T13:19:22;20.00;;;13.40;;
8594;SDS011;4335;48.860;9.198;2024-02-28T13:21:50;22.23;;;13.80;;
8594;SDS011;4335;48.860;9.198;2024-02-28T13:24:23;20.37;;;13.97;;
8594;SDS011;4335;48.860;9.198;2024-02-28T13:26:50;22.20;;;14.67;;
8594;SDS011;4335;48.860;9.198;2024-02-28T13:29:22;19.27;;;13.73;;
8594;SDS011;4335;48.860;9.198;2024-02-28T13:31:51;19.80;;;14.03;;
8594;SDS011;4335;48.860;9.198;2024-02-28T13:34:19;18.00;;;12.60;;
8594;SDS011;4335;48.860;9.198;2024-02-28T13:36:52;19.53;;;13.63;;
8594;SDS011;4335;48.860;9.198;2024-02-28T13:39:19;19.67;;;13.40;;
8594;SDS011;4335;48.860;9.198;2024-02-28T13:41:48;19.53;;;12.77;;
8594;SDS011;4335;48.860;9.198;2024-02-28T13:44:17;19.20;;;13.73;;
8594;SDS011;4335;48.860;9.198;2024-02-28T13:46:49;17.63;;;13.63;;
8594;SDS011;4335;48.860;9.198;2024-02-28T13:49:18;18.43;;;12.80;;
8594;SDS011;4335;48.860;9.198;2024-02-28T13:51:46;22.53;;;14.00;;
8594;SDS011;4335;48.860;9.198;2024-02-28T13:54:14;18.67;;;12.97;;
8594;SDS011;4335;48.860;9.198;2024-02-28T13:56:42;17.97;;;12.20;;
8594;SDS011;4335;48.860;9.198;2024-02-28T13:59:15;19.40;;;13.43;;
8594;SDS011;4335;48.860;9.198;2024-02-28T14:01:46;18.03;;;14.17;;
8594;SDS011;4335;48.860;9.198;2024-02-28T14:04:15;15.90;;;12.63;;
8594;SDS011;4335;48.860;9.198;2024-02-28T14:06:45;17.33;;;12.80;;
8594;SDS011;4335;48.860;9.198;2024-02-28T14:09:19;15.53;;;12.03;;
8594;SDS011;4335;48.860;9.198;2024-02-28T14:11:47;17.90;;;12.80;;
8594;SDS011;4335;48.860;9.198;2024-02-28T14:14:14;15.60;;;11.70;;
8594;SDS011;4335;48.860;9.198;2024-02-28T14:16:42;15.73;;;11.90;;
8594;SDS011;4335;48.860;9.198;2024-02-28T14:19:13;14.17;;;10.47;;
8594;SDS011;4335;48.860;9.198;2024-02-28T14:21:41;16.20;;;10.57;;
8594;SDS011;4335;48.860;9.198;2024-02-28T14:24:15;14.23;;;10.87;;
8594;SDS011;4335;48.860;9.198;2024-02-28T14:26:45;15.60;;;11.53;;
8594;SDS011;4335;48.860;9.198;2024-02-28T14:29:12;15.63;;;11.23;;
8594;SDS011;4335;48.860;9.198;2024-02-28T14:31:40;15.63;;;11.80;;
8594;SDS011;4335;48.860;9.198;2024-02-28T14:34:08;14.90;;;11.03;;
8594;SDS011;4335;48.860;9.198;2024-02-28T14:36:35;14.60;;;11.20;;
8594;SDS011;4335;48.860;9.198;2024-02-28T14:39:04;14.43;;;11.03;;
8594;SDS011;4335;48.860;9.198;2024-02-28T14:41:40;14.70;;;11.13;;
8594;SDS011;4335;48.860;9.198;2024-02-28T14:44:09;16.40;;;11.43;;
8594;SDS011;4335;48.860;9.198;2024-02-28T14:46:36;16.07;;;11.47;;
8594;SDS011;4335;48.860;9.198;2024-02-28T14:49:07;15.23;;;11.20;;
8594;SDS011;4335;48.860;9.198;2024-02-28T14:51:34;14.43;;;10.60;;
8594;SDS011;4335;48.860;9.198;2024-02-28T14:54:03;15.37;;;10.40;;
8594;SDS011;4335;48.860;9.198;2024-02-28T14:56:31;14.83;;;11.53;;
8594;SDS011;4335;48.860;9.198;2024-02-28T14:58:59;16.17;;;11.50;;
8594;SDS011;4335;48.860;9.198;2024-02-28T15:01:30;14.87;;;10.83;;
8594;SDS011;4335;48.860;9.198;2024-02-28T15:04:00;18.37;;;11.40;;
8594;SDS011;4335;48.860;9.198;2024-02-28T15:06:28;15.50;;;10.67;;